sensor_id;sensor_type;location;lat;lon;timestamp;temperature;humidity
51950;DHT22;37974;53.218;6.640;2022-09-25T00:00:23;9.20;99.90
51950;DHT22;37974;53.218;6.640;2022-09-25T00:02:49;9.20;99.90
51950;DHT22;37974;53.218;6.640;2022-09-25T00:05:15;9.10;99.90
51950;DHT22;37974;53.218;6.640;2022-09-25T00:07:41;9.10;99.90
51950;DHT22;37974;53.218;6.640;2022-09-25T00:10:07;9.00;99.90
51950;DHT22;37974;53.218;6.640;2022-09-25T00:12:33;9.00;99.90
51950;DHT22;37974;53.218;6.640;2022-09-25T00:14:58;9.00;99.90
51950;DHT22;37974;53.218;6.640;2022-09-25T00:17:24;9.00;99.90
51950;DHT22;37974;53.218;6.640;2022-09-25T00:19:50;8.90;99.90
51950;DHT22;37974;53.218;6.640;2022-09-25T00:22:17;8.90;99.90
51950;DHT22;37974;53.218;6.640;2022-09-25T00:24:43;8.90;99.90
51950;DHT22;37974;53.218;6.640;2022-09-25T00:27:09;8.90;99.90
51950;DHT22;37974;53.218;6.640;2022-09-25T00:29:36;8.90;99.90
51950;DHT22;37974;53.218;6.640;2022-09-25T00:32:03;8.90;99.90
51950;DHT22;37974;53.218;6.640;2022-09-25T00:34:29;8.90;99.90
51950;DHT22;37974;53.218;6.640;2022-09-25T00:36:54;8.90;99.90
51950;DHT22;37974;53.218;6.640;2022-09-25T00:39:20;8.90;99.90
51950;DHT22;37974;53.218;6.640;2022-09-25T00:41:46;8.90;99.90
51950;DHT22;37974;53.218;6.640;2022-09-25T00:44:50;8.80;99.90
51950;DHT22;37974;53.218;6.640;2022-09-25T00:47:26;8.80;99.90
51950;DHT22;37974;53.218;6.640;2022-09-25T00:49:54;8.70;99.90
51950;DHT22;37974;53.218;6.640;2022-09-25T00:52:21;8.70;99.90
51950;DHT22;37974;53.218;6.640;2022-09-25T00:54:54;8.70;99.90
51950;DHT22;37974;53.218;6.640;2022-09-25T00:57:24;8.90;99.90
51950;DHT22;37974;53.218;6.640;2022-09-25T00:59:53;8.60;99.90
51950;DHT22;37974;53.218;6.640;2022-09-25T01:02:26;8.50;99.90
51950;DHT22;37974;53.218;6.640;2022-09-25T01:04:56;8.50;99.90
51950;DHT22;37974;53.218;6.640;2022-09-25T01:07:24;8.50;99.90
51950;DHT22;37974;53.218;6.640;2022-09-25T01:09:50;8.40;99.90
51950;DHT22;37974;53.218;6.640;2022-09-25T01:12:15;8.40;99.90
51950;DHT22;37974;53.218;6.640;2022-09-25T01:14:41;8.40;99.90
51950;DHT22;37974;53.218;6.640;2022-09-25T01:17:14;8.50;99.90
51950;DHT22;37974;53.218;6.640;2022-09-25T01:22:35;8.50;99.90
51950;DHT22;37974;53.218;6.640;2022-09-25T01:25:16;8.40;99.90
51950;DHT22;37974;53.218;6.640;2022-09-25T01:27:59;8.40;99.90
51950;DHT22;37974;53.218;6.640;2022-09-25T01:30:33;8.40;99.90
51950;DHT22;37974;53.218;6.640;2022-09-25T01:33:09;8.30;99.90
51950;DHT22;37974;53.218;6.640;2022-09-25T01:35:44;8.30;99.90
51950;DHT22;37974;53.218;6.640;2022-09-25T01:38:33;8.30;99.90
51950;DHT22;37974;53.218;6.640;2022-09-25T01:41:18;8.20;99.90
51950;DHT22;37974;53.218;6.640;2022-09-25T01:46:20;8.20;99.90
51950;DHT22;37974;53.218;6.640;2022-09-25T01:48:52;8.10;99.90
51950;DHT22;37974;53.218;6.640;2022-09-25T01:51:23;8.30;99.90
51950;DHT22;37974;53.218;6.640;2022-09-25T01:53:54;8.30;99.90
51950;DHT22;37974;53.218;6.640;2022-09-25T01:56:27;8.40;99.90
51950;DHT22;37974;53.218;6.640;2022-09-25T01:59:06;8.30;99.90
51950;DHT22;37974;53.218;6.640;2022-09-25T02:01:38;8.40;99.90
51950;DHT22;37974;53.218;6.640;2022-09-25T02:04:09;8.40;99.90
51950;DHT22;37974;53.218;6.640;2022-09-25T02:06:37;8.40;99.90
51950;DHT22;37974;53.218;6.640;2022-09-25T02:09:08;8.40;99.90
51950;DHT22;37974;53.218;6.640;2022-09-25T02:11:40;8.40;99.90
51950;DHT22;37974;53.218;6.640;2022-09-25T02:14:12;8.30;99.90
51950;DHT22;37974;53.218;6.640;2022-09-25T02:16:40;8.20;99.90
51950;DHT22;37974;53.218;6.640;2022-09-25T02:19:09;8.20;99.90
51950;DHT22;37974;53.218;6.640;2022-09-25T02:24:25;8.10;99.90
51950;DHT22;37974;53.218;6.640;2022-09-25T02:26:55;8.10;99.90
51950;DHT22;37974;53.218;6.640;2022-09-25T02:29:21;8.00;99.90
51950;DHT22;37974;53.218;6.640;2022-09-25T02:31:57;8.10;99.90
51950;DHT22;37974;53.218;6.640;2022-09-25T02:34:24;8.00;99.90
51950;DHT22;37974;53.218;6.640;2022-09-25T02:36:50;7.90;99.90
51950;DHT22;37974;53.218;6.640;2022-09-25T02:39:19;8.00;99.90
51950;DHT22;37974;53.218;6.640;2022-09-25T02:41:56;7.90;99.90
51950;DHT22;37974;53.218;6.640;2022-09-25T02:44:50;7.90;99.90
51950;DHT22;37974;53.218;6.640;2022-09-25T02:50:22;7.80;99.90
51950;DHT22;37974;53.218;6.640;2022-09-25T02:53:01;7.80;99.90
51950;DHT22;37974;53.218;6.640;2022-09-25T02:55:39;7.70;99.90
51950;DHT22;37974;53.218;6.640;2022-09-25T02:58:16;7.60;99.90
51950;DHT22;37974;53.218;6.640;2022-09-25T03:00:46;7.60;99.90
51950;DHT22;37974;53.218;6.640;2022-09-25T03:03:15;7.50;99.90
51950;DHT22;37974;53.218;6.640;2022-09-25T03:05:42;7.60;99.90
51950;DHT22;37974;53.218;6.640;2022-09-25T03:08:08;7.60;99.90
51950;DHT22;37974;53.218;6.640;2022-09-25T03:10:53;7.60;99.90
51950;DHT22;37974;53.218;6.640;2022-09-25T03:13:21;7.70;99.90
51950;DHT22;37974;53.218;6.640;2022-09-25T03:15:55;7.70;99.90
51950;DHT22;37974;53.218;6.640;2022-09-25T03:18:23;7.70;99.90
51950;DHT22;37974;53.218;6.640;2022-09-25T03:20:50;7.80;99.90
51950;DHT22;37974;53.218;6.640;2022-09-25T03:23:17;7.90;99.90
51950;DHT22;37974;53.218;6.640;2022-09-25T03:25:43;8.00;99.90
51950;DHT22;37974;53.218;6.640;2022-09-25T03:28:10;8.00;99.90
51950;DHT22;37974;53.218;6.640;2022-09-25T03:30:37;8.10;99.90
51950;DHT22;37974;53.218;6.640;2022-09-25T03:33:06;8.20;99.90
51950;DHT22;37974;53.218;6.640;2022-09-25T03:35:32;8.20;99.90
51950;DHT22;37974;53.218;6.640;2022-09-25T03:37:58;8.30;99.90
51950;DHT22;37974;53.218;6.640;2022-09-25T03:40:23;8.30;99.90
51950;DHT22;37974;53.218;6.640;2022-09-25T03:42:49;8.50;99.90
51950;DHT22;37974;53.218;6.640;2022-09-25T03:45:15;8.50;99.90
51950;DHT22;37974;53.218;6.640;2022-09-25T03:47:40;8.60;99.90
51950;DHT22;37974;53.218;6.640;2022-09-25T03:50:07;8.60;99.90
51950;DHT22;37974;53.218;6.640;2022-09-25T03:52:33;8.70;99.90
51950;DHT22;37974;53.218;6.640;2022-09-25T03:54:59;8.80;99.90
51950;DHT22;37974;53.218;6.640;2022-09-25T03:57:25;8.70;99.90
51950;DHT22;37974;53.218;6.640;2022-09-25T03:59:51;8.70;99.90
51950;DHT22;37974;53.218;6.640;2022-09-25T04:02:17;8.70;99.90
51950;DHT22;37974;53.218;6.640;2022-09-25T04:04:42;8.60;99.90
51950;DHT22;37974;53.218;6.640;2022-09-25T04:07:11;8.60;99.90
51950;DHT22;37974;53.218;6.640;2022-09-25T04:09:37;8.60;99.90
51950;DHT22;37974;53.218;6.640;2022-09-25T04:12:02;8.60;99.90
51950;DHT22;37974;53.218;6.640;2022-09-25T04:14:31;8.50;99.90
51950;DHT22;37974;53.218;6.640;2022-09-25T04:16:56;8.60;99.90
51950;DHT22;37974;53.218;6.640;2022-09-25T04:19:22;8.50;99.90
51950;DHT22;37974;53.218;6.640;2022-09-25T04:21:47;8.40;99.90
51950;DHT22;37974;53.218;6.640;2022-09-25T04:24:13;8.40;99.90
51950;DHT22;37974;53.218;6.640;2022-09-25T04:26:57;8.30;99.90
51950;DHT22;37974;53.218;6.640;2022-09-25T04:29:23;8.30;99.90
51950;DHT22;37974;53.218;6.640;2022-09-25T04:31:49;8.20;99.90
51950;DHT22;37974;53.218;6.640;2022-09-25T04:34:35;8.10;99.90
51950;DHT22;37974;53.218;6.640;2022-09-25T04:37:01;8.00;99.90
51950;DHT22;37974;53.218;6.640;2022-09-25T04:39:27;7.90;99.90
51950;DHT22;37974;53.218;6.640;2022-09-25T04:41:52;7.90;99.90
51950;DHT22;37974;53.218;6.640;2022-09-25T04:44:18;7.90;99.90
51950;DHT22;37974;53.218;6.640;2022-09-25T04:46:44;7.80;99.90
51950;DHT22;37974;53.218;6.640;2022-09-25T04:49:10;7.70;99.90
51950;DHT22;37974;53.218;6.640;2022-09-25T04:51:36;7.50;99.90
51950;DHT22;37974;53.218;6.640;2022-09-25T04:54:01;7.50;99.90
51950;DHT22;37974;53.218;6.640;2022-09-25T04:56:27;7.40;99.90
51950;DHT22;37974;53.218;6.640;2022-09-25T04:58:53;7.30;99.90
51950;DHT22;37974;53.218;6.640;2022-09-25T05:01:19;7.20;99.90
51950;DHT22;37974;53.218;6.640;2022-09-25T05:03:49;7.50;99.90
51950;DHT22;37974;53.218;6.640;2022-09-25T05:06:15;7.20;99.90
51950;DHT22;37974;53.218;6.640;2022-09-25T05:08:41;7.50;99.90
51950;DHT22;37974;53.218;6.640;2022-09-25T05:11:06;7.20;99.90
51950;DHT22;37974;53.218;6.640;2022-09-25T05:13:33;7.10;99.90
51950;DHT22;37974;53.218;6.640;2022-09-25T05:15:59;7.00;99.90
51950;DHT22;37974;53.218;6.640;2022-09-25T05:18:25;7.10;99.90
51950;DHT22;37974;53.218;6.640;2022-09-25T05:20:51;7.00;99.90
51950;DHT22;37974;53.218;6.640;2022-09-25T05:23:20;7.00;99.90
51950;DHT22;37974;53.218;6.640;2022-09-25T05:25:51;7.00;99.90
51950;DHT22;37974;53.218;6.640;2022-09-25T05:28:17;7.00;99.90
51950;DHT22;37974;53.218;6.640;2022-09-25T05:30:43;7.10;99.90
51950;DHT22;37974;53.218;6.640;2022-09-25T05:33:08;7.10;99.90
51950;DHT22;37974;53.218;6.640;2022-09-25T05:35:34;7.10;99.90
51950;DHT22;37974;53.218;6.640;2022-09-25T05:38:00;7.00;99.90
51950;DHT22;37974;53.218;6.640;2022-09-25T05:40:27;7.00;99.90
51950;DHT22;37974;53.218;6.640;2022-09-25T05:42:53;7.00;99.90
51950;DHT22;37974;53.218;6.640;2022-09-25T05:45:20;7.00;99.90
51950;DHT22;37974;53.218;6.640;2022-09-25T05:48:08;7.00;99.90
51950;DHT22;37974;53.218;6.640;2022-09-25T05:50:34;7.10;99.90
51950;DHT22;37974;53.218;6.640;2022-09-25T05:53:02;7.00;99.90
51950;DHT22;37974;53.218;6.640;2022-09-25T05:55:31;7.00;99.90
51950;DHT22;37974;53.218;6.640;2022-09-25T05:58:02;7.00;99.90
51950;DHT22;37974;53.218;6.640;2022-09-25T06:00:28;7.00;99.90
51950;DHT22;37974;53.218;6.640;2022-09-25T06:02:56;7.10;99.90
51950;DHT22;37974;53.218;6.640;2022-09-25T06:05:24;7.00;99.90
51950;DHT22;37974;53.218;6.640;2022-09-25T06:07:53;7.00;99.90
51950;DHT22;37974;53.218;6.640;2022-09-25T06:10:19;7.10;99.90
51950;DHT22;37974;53.218;6.640;2022-09-25T06:12:44;7.00;99.90
51950;DHT22;37974;53.218;6.640;2022-09-25T06:15:10;7.10;99.90
51950;DHT22;37974;53.218;6.640;2022-09-25T06:17:36;7.10;99.90
51950;DHT22;37974;53.218;6.640;2022-09-25T06:20:02;7.20;99.90
51950;DHT22;37974;53.218;6.640;2022-09-25T06:22:28;7.30;99.90
51950;DHT22;37974;53.218;6.640;2022-09-25T06:24:57;7.30;99.90
51950;DHT22;37974;53.218;6.640;2022-09-25T06:27:23;7.30;99.90
51950;DHT22;37974;53.218;6.640;2022-09-25T06:29:49;7.30;99.90
51950;DHT22;37974;53.218;6.640;2022-09-25T06:32:15;7.30;99.90
51950;DHT22;37974;53.218;6.640;2022-09-25T06:34:41;7.40;99.90
51950;DHT22;37974;53.218;6.640;2022-09-25T06:37:07;7.40;99.90
51950;DHT22;37974;53.218;6.640;2022-09-25T06:39:33;7.50;99.90
51950;DHT22;37974;53.218;6.640;2022-09-25T06:41:59;7.60;99.90
51950;DHT22;37974;53.218;6.640;2022-09-25T06:44:25;7.60;99.90
51950;DHT22;37974;53.218;6.640;2022-09-25T06:46:52;7.80;99.90
51950;DHT22;37974;53.218;6.640;2022-09-25T06:49:19;7.80;99.90
51950;DHT22;37974;53.218;6.640;2022-09-25T06:51:45;7.90;99.90
51950;DHT22;37974;53.218;6.640;2022-09-25T06:54:11;8.00;99.90
51950;DHT22;37974;53.218;6.640;2022-09-25T06:56:37;8.10;99.90
51950;DHT22;37974;53.218;6.640;2022-09-25T06:59:03;8.10;99.90
51950;DHT22;37974;53.218;6.640;2022-09-25T07:01:29;8.20;99.90
51950;DHT22;37974;53.218;6.640;2022-09-25T07:03:54;8.30;99.90
51950;DHT22;37974;53.218;6.640;2022-09-25T07:06:23;8.40;99.90
51950;DHT22;37974;53.218;6.640;2022-09-25T07:08:50;8.60;99.90
51950;DHT22;37974;53.218;6.640;2022-09-25T07:11:19;8.70;99.90
51950;DHT22;37974;53.218;6.640;2022-09-25T07:13:45;8.90;99.90
51950;DHT22;37974;53.218;6.640;2022-09-25T07:16:14;9.10;99.90
51950;DHT22;37974;53.218;6.640;2022-09-25T07:18:41;9.30;99.90
51950;DHT22;37974;53.218;6.640;2022-09-25T07:21:13;9.40;99.90
51950;DHT22;37974;53.218;6.640;2022-09-25T07:23:45;9.60;99.90
51950;DHT22;37974;53.218;6.640;2022-09-25T07:26:14;9.80;99.90
51950;DHT22;37974;53.218;6.640;2022-09-25T07:28:47;10.20;99.90
51950;DHT22;37974;53.218;6.640;2022-09-25T07:31:18;10.30;99.90
51950;DHT22;37974;53.218;6.640;2022-09-25T07:33:45;10.80;99.90
51950;DHT22;37974;53.218;6.640;2022-09-25T07:36:12;11.00;99.90
51950;DHT22;37974;53.218;6.640;2022-09-25T07:38:38;11.30;99.90
51950;DHT22;37974;53.218;6.640;2022-09-25T07:41:06;11.70;99.90
51950;DHT22;37974;53.218;6.640;2022-09-25T07:43:33;11.90;99.90
51950;DHT22;37974;53.218;6.640;2022-09-25T07:45:59;12.20;99.90
51950;DHT22;37974;53.218;6.640;2022-09-25T07:48:25;12.40;99.90
51950;DHT22;37974;53.218;6.640;2022-09-25T07:50:58;12.60;99.90
51950;DHT22;37974;53.218;6.640;2022-09-25T07:53:24;12.70;99.90
51950;DHT22;37974;53.218;6.640;2022-09-25T07:55:50;12.80;99.90
51950;DHT22;37974;53.218;6.640;2022-09-25T07:58:16;12.90;99.90
51950;DHT22;37974;53.218;6.640;2022-09-25T08:00:44;12.90;99.90
51950;DHT22;37974;53.218;6.640;2022-09-25T08:03:10;12.90;99.90
51950;DHT22;37974;53.218;6.640;2022-09-25T08:05:36;12.90;99.90
51950;DHT22;37974;53.218;6.640;2022-09-25T08:08:02;12.90;99.90
51950;DHT22;37974;53.218;6.640;2022-09-25T08:10:28;12.90;99.90
51950;DHT22;37974;53.218;6.640;2022-09-25T08:12:54;12.90;99.90
51950;DHT22;37974;53.218;6.640;2022-09-25T08:15:20;13.00;99.90
51950;DHT22;37974;53.218;6.640;2022-09-25T08:17:45;13.00;99.90
51950;DHT22;37974;53.218;6.640;2022-09-25T08:20:11;13.10;99.90
51950;DHT22;37974;53.218;6.640;2022-09-25T08:22:37;13.20;99.90
51950;DHT22;37974;53.218;6.640;2022-09-25T08:25:03;13.20;99.90
51950;DHT22;37974;53.218;6.640;2022-09-25T08:27:30;13.30;99.90
51950;DHT22;37974;53.218;6.640;2022-09-25T08:30:02;13.40;99.90
51950;DHT22;37974;53.218;6.640;2022-09-25T08:32:28;13.60;99.90
51950;DHT22;37974;53.218;6.640;2022-09-25T08:34:54;13.80;99.90
51950;DHT22;37974;53.218;6.640;2022-09-25T08:37:19;14.00;99.90
51950;DHT22;37974;53.218;6.640;2022-09-25T08:39:45;14.20;99.90
51950;DHT22;37974;53.218;6.640;2022-09-25T08:42:18;14.40;99.90
51950;DHT22;37974;53.218;6.640;2022-09-25T08:44:49;14.50;99.90
51950;DHT22;37974;53.218;6.640;2022-09-25T08:47:37;14.60;99.90
51950;DHT22;37974;53.218;6.640;2022-09-25T08:50:31;14.60;99.90
51950;DHT22;37974;53.218;6.640;2022-09-25T08:53:06;14.40;99.90
51950;DHT22;37974;53.218;6.640;2022-09-25T08:56:29;14.20;99.90
51950;DHT22;37974;53.218;6.640;2022-09-25T08:59:30;13.80;99.90
51950;DHT22;37974;53.218;6.640;2022-09-25T09:07:34;13.30;99.90
51950;DHT22;37974;53.218;6.640;2022-09-25T09:11:04;13.00;99.90
51950;DHT22;37974;53.218;6.640;2022-09-25T09:17:02;12.90;99.90
51950;DHT22;37974;53.218;6.640;2022-09-25T09:19:58;13.00;99.90
51950;DHT22;37974;53.218;6.640;2022-09-25T09:22:49;13.00;99.90
51950;DHT22;37974;53.218;6.640;2022-09-25T09:31:16;13.10;99.90
51950;DHT22;37974;53.218;6.640;2022-09-25T09:43:39;12.40;99.90
51950;DHT22;37974;53.218;6.640;2022-09-25T09:46:53;12.50;99.90
51950;DHT22;37974;53.218;6.640;2022-09-25T09:49:48;12.50;99.90
51950;DHT22;37974;53.218;6.640;2022-09-25T09:52:35;12.50;99.90
51950;DHT22;37974;53.218;6.640;2022-09-25T09:55:45;12.60;99.90
51950;DHT22;37974;53.218;6.640;2022-09-25T09:58:43;12.70;99.90
51950;DHT22;37974;53.218;6.640;2022-09-25T10:01:18;12.70;99.90
51950;DHT22;37974;53.218;6.640;2022-09-25T10:03:50;12.80;99.90
51950;DHT22;37974;53.218;6.640;2022-09-25T10:06:49;12.90;99.90
51950;DHT22;37974;53.218;6.640;2022-09-25T10:09:18;12.90;99.90
51950;DHT22;37974;53.218;6.640;2022-09-25T10:12:31;13.10;99.90
51950;DHT22;37974;53.218;6.640;2022-09-25T10:15:26;13.30;99.90
51950;DHT22;37974;53.218;6.640;2022-09-25T10:32:02;14.00;99.90
51950;DHT22;37974;53.218;6.640;2022-09-25T10:34:29;14.00;99.90
51950;DHT22;37974;53.218;6.640;2022-09-25T10:40:38;14.30;99.90
51950;DHT22;37974;53.218;6.640;2022-09-25T10:43:28;14.20;99.90
51950;DHT22;37974;53.218;6.640;2022-09-25T10:46:11;14.70;99.90
51950;DHT22;37974;53.218;6.640;2022-09-25T10:48:38;14.90;99.90
51950;DHT22;37974;53.218;6.640;2022-09-25T10:51:23;15.10;99.90
51950;DHT22;37974;53.218;6.640;2022-09-25T10:53:52;15.30;99.90
51950;DHT22;37974;53.218;6.640;2022-09-25T10:56:31;15.30;99.90
51950;DHT22;37974;53.218;6.640;2022-09-25T10:59:13;15.50;99.90
51950;DHT22;37974;53.218;6.640;2022-09-25T11:01:42;15.50;99.90
51950;DHT22;37974;53.218;6.640;2022-09-25T11:04:13;15.50;99.90
51950;DHT22;37974;53.218;6.640;2022-09-25T11:06:48;15.40;99.90
51950;DHT22;37974;53.218;6.640;2022-09-25T11:09:27;15.40;99.90
51950;DHT22;37974;53.218;6.640;2022-09-25T11:12:10;15.40;99.90
51950;DHT22;37974;53.218;6.640;2022-09-25T11:14:46;15.30;99.90
51950;DHT22;37974;53.218;6.640;2022-09-25T11:17:32;15.20;99.90
51950;DHT22;37974;53.218;6.640;2022-09-25T11:22:54;15.00;99.90
51950;DHT22;37974;53.218;6.640;2022-09-25T11:25:29;15.00;99.90
51950;DHT22;37974;53.218;6.640;2022-09-25T11:28:10;15.00;99.90
51950;DHT22;37974;53.218;6.640;2022-09-25T11:30:50;15.20;99.90
51950;DHT22;37974;53.218;6.640;2022-09-25T11:33:46;15.40;99.90
51950;DHT22;37974;53.218;6.640;2022-09-25T11:36:26;15.60;99.90
51950;DHT22;37974;53.218;6.640;2022-09-25T11:38:55;15.90;99.90
51950;DHT22;37974;53.218;6.640;2022-09-25T11:41:55;16.00;99.90
51950;DHT22;37974;53.218;6.640;2022-09-25T11:44:27;16.10;99.90
51950;DHT22;37974;53.218;6.640;2022-09-25T11:47:16;16.00;99.90
51950;DHT22;37974;53.218;6.640;2022-09-25T11:49:47;15.90;99.90
51950;DHT22;37974;53.218;6.640;2022-09-25T11:52:37;15.80;99.90
51950;DHT22;37974;53.218;6.640;2022-09-25T11:55:30;15.70;99.90
51950;DHT22;37974;53.218;6.640;2022-09-25T12:03:43;16.00;99.90
51950;DHT22;37974;53.218;6.640;2022-09-25T12:06:50;16.00;99.90
51950;DHT22;37974;53.218;6.640;2022-09-25T12:09:49;16.10;99.90
51950;DHT22;37974;53.218;6.640;2022-09-25T12:17:35;16.10;99.90
51950;DHT22;37974;53.218;6.640;2022-09-25T12:30:54;16.00;99.90
51950;DHT22;37974;53.218;6.640;2022-09-25T12:33:46;16.00;99.90
51950;DHT22;37974;53.218;6.640;2022-09-25T12:36:22;15.90;99.90
51950;DHT22;37974;53.218;6.640;2022-09-25T12:44:03;15.90;99.90
51950;DHT22;37974;53.218;6.640;2022-09-25T12:46:38;15.80;99.90
51950;DHT22;37974;53.218;6.640;2022-09-25T12:49:31;15.80;99.90
51950;DHT22;37974;53.218;6.640;2022-09-25T12:52:11;15.80;99.90
51950;DHT22;37974;53.218;6.640;2022-09-25T12:57:17;15.70;99.90
51950;DHT22;37974;53.218;6.640;2022-09-25T12:59:49;15.70;99.90
51950;DHT22;37974;53.218;6.640;2022-09-25T13:02:29;15.80;99.90
51950;DHT22;37974;53.218;6.640;2022-09-25T13:07:43;15.90;99.90
51950;DHT22;37974;53.218;6.640;2022-09-25T13:10:22;15.90;99.90
51950;DHT22;37974;53.218;6.640;2022-09-25T13:12:59;16.00;99.90
51950;DHT22;37974;53.218;6.640;2022-09-25T13:15:30;16.00;99.90
51950;DHT22;37974;53.218;6.640;2022-09-25T13:17:59;16.00;99.90
51950;DHT22;37974;53.218;6.640;2022-09-25T13:25:44;15.90;99.90
51950;DHT22;37974;53.218;6.640;2022-09-25T13:28:22;15.90;99.90
51950;DHT22;37974;53.218;6.640;2022-09-25T13:31:00;15.90;99.90
51950;DHT22;37974;53.218;6.640;2022-09-25T13:33:27;15.90;99.90
51950;DHT22;37974;53.218;6.640;2022-09-25T13:36:09;15.90;99.90
51950;DHT22;37974;53.218;6.640;2022-09-25T13:38:45;15.70;99.90
51950;DHT22;37974;53.218;6.640;2022-09-25T13:41:29;15.70;99.90
51950;DHT22;37974;53.218;6.640;2022-09-25T13:49:50;15.50;99.90
51950;DHT22;37974;53.218;6.640;2022-09-25T13:55:16;15.60;99.90
51950;DHT22;37974;53.218;6.640;2022-09-25T14:00:25;15.50;99.90
51950;DHT22;37974;53.218;6.640;2022-09-25T14:02:53;15.50;99.90
51950;DHT22;37974;53.218;6.640;2022-09-25T14:05:29;15.60;99.90
51950;DHT22;37974;53.218;6.640;2022-09-25T14:08:06;15.70;99.90
51950;DHT22;37974;53.218;6.640;2022-09-25T14:10:34;15.80;99.90
51950;DHT22;37974;53.218;6.640;2022-09-25T14:13:00;15.70;99.90
51950;DHT22;37974;53.218;6.640;2022-09-25T14:15:33;15.70;99.90
51950;DHT22;37974;53.218;6.640;2022-09-25T14:18:03;15.70;99.90
51950;DHT22;37974;53.218;6.640;2022-09-25T14:20:32;15.80;99.90
51950;DHT22;37974;53.218;6.640;2022-09-25T14:23:05;15.70;99.90
51950;DHT22;37974;53.218;6.640;2022-09-25T14:25:37;15.60;99.90
51950;DHT22;37974;53.218;6.640;2022-09-25T14:28:24;15.40;99.90
51950;DHT22;37974;53.218;6.640;2022-09-25T14:31:11;15.40;99.90
51950;DHT22;37974;53.218;6.640;2022-09-25T14:36:22;15.30;99.90
51950;DHT22;37974;53.218;6.640;2022-09-25T14:41:42;15.40;99.90
51950;DHT22;37974;53.218;6.640;2022-09-25T14:44:14;15.40;99.90
51950;DHT22;37974;53.218;6.640;2022-09-25T14:46:46;15.40;99.90
51950;DHT22;37974;53.218;6.640;2022-09-25T14:51:56;15.50;99.90
51950;DHT22;37974;53.218;6.640;2022-09-25T14:54:26;15.50;99.90
51950;DHT22;37974;53.218;6.640;2022-09-25T14:56:55;15.40;99.90
51950;DHT22;37974;53.218;6.640;2022-09-25T14:59:32;15.30;99.90
51950;DHT22;37974;53.218;6.640;2022-09-25T15:02:02;15.30;99.90
51950;DHT22;37974;53.218;6.640;2022-09-25T15:04:31;15.30;99.90
51950;DHT22;37974;53.218;6.640;2022-09-25T15:07:01;15.40;99.90
51950;DHT22;37974;53.218;6.640;2022-09-25T15:09:35;15.40;99.90
51950;DHT22;37974;53.218;6.640;2022-09-25T15:12:14;15.40;99.90
51950;DHT22;37974;53.218;6.640;2022-09-25T15:15:05;15.40;99.90
51950;DHT22;37974;53.218;6.640;2022-09-25T15:17:33;15.50;99.90
51950;DHT22;37974;53.218;6.640;2022-09-25T15:20:05;15.50;99.90
51950;DHT22;37974;53.218;6.640;2022-09-25T15:22:35;15.50;99.90
51950;DHT22;37974;53.218;6.640;2022-09-25T15:25:06;15.50;99.90
51950;DHT22;37974;53.218;6.640;2022-09-25T15:27:33;15.50;99.90
51950;DHT22;37974;53.218;6.640;2022-09-25T15:29:59;15.50;99.90
51950;DHT22;37974;53.218;6.640;2022-09-25T15:32:34;15.40;99.90
51950;DHT22;37974;53.218;6.640;2022-09-25T15:35:07;15.30;99.90
51950;DHT22;37974;53.218;6.640;2022-09-25T15:37:40;15.20;99.90
51950;DHT22;37974;53.218;6.640;2022-09-25T15:42:46;15.00;99.90
51950;DHT22;37974;53.218;6.640;2022-09-25T15:45:33;15.00;99.90
51950;DHT22;37974;53.218;6.640;2022-09-25T15:48:09;14.90;99.90
51950;DHT22;37974;53.218;6.640;2022-09-25T15:50:36;14.80;99.90
51950;DHT22;37974;53.218;6.640;2022-09-25T15:55:49;14.70;99.90
51950;DHT22;37974;53.218;6.640;2022-09-25T15:58:24;14.60;99.90
51950;DHT22;37974;53.218;6.640;2022-09-25T16:00:58;14.40;99.90
51950;DHT22;37974;53.218;6.640;2022-09-25T16:03:47;14.30;99.90
51950;DHT22;37974;53.218;6.640;2022-09-25T16:06:38;14.20;99.90
51950;DHT22;37974;53.218;6.640;2022-09-25T16:11:34;14.00;99.90
51950;DHT22;37974;53.218;6.640;2022-09-25T16:14:26;13.90;99.90
51950;DHT22;37974;53.218;6.640;2022-09-25T16:16:54;13.90;99.90
51950;DHT22;37974;53.218;6.640;2022-09-25T16:19:28;13.80;99.90
51950;DHT22;37974;53.218;6.640;2022-09-25T16:21:58;13.80;99.90
51950;DHT22;37974;53.218;6.640;2022-09-25T16:24:26;13.80;99.90
51950;DHT22;37974;53.218;6.640;2022-09-25T16:26:59;13.80;99.90
51950;DHT22;37974;53.218;6.640;2022-09-25T16:29:28;13.80;99.90
51950;DHT22;37974;53.218;6.640;2022-09-25T16:32:02;13.70;99.90
51950;DHT22;37974;53.218;6.640;2022-09-25T16:34:33;13.80;99.90
51950;DHT22;37974;53.218;6.640;2022-09-25T16:37:00;13.70;99.90
51950;DHT22;37974;53.218;6.640;2022-09-25T16:39:30;13.70;99.90
51950;DHT22;37974;53.218;6.640;2022-09-25T16:41:58;13.70;99.90
51950;DHT22;37974;53.218;6.640;2022-09-25T16:49:23;13.70;99.90
51950;DHT22;37974;53.218;6.640;2022-09-25T16:51:52;13.60;99.90
51950;DHT22;37974;53.218;6.640;2022-09-25T16:54:19;13.60;99.90
51950;DHT22;37974;53.218;6.640;2022-09-25T16:56:49;13.60;99.90
51950;DHT22;37974;53.218;6.640;2022-09-25T16:59:20;13.60;99.90
51950;DHT22;37974;53.218;6.640;2022-09-25T17:01:49;13.60;99.90
51950;DHT22;37974;53.218;6.640;2022-09-25T17:04:20;13.60;99.90
51950;DHT22;37974;53.218;6.640;2022-09-25T17:06:46;13.50;99.90
51950;DHT22;37974;53.218;6.640;2022-09-25T17:09:15;13.60;99.90
51950;DHT22;37974;53.218;6.640;2022-09-25T17:11:43;13.60;99.90
51950;DHT22;37974;53.218;6.640;2022-09-25T17:14:20;13.60;99.90
51950;DHT22;37974;53.218;6.640;2022-09-25T17:16:48;13.50;99.90
51950;DHT22;37974;53.218;6.640;2022-09-25T17:19:14;13.50;99.90
51950;DHT22;37974;53.218;6.640;2022-09-25T17:21:40;13.50;99.90
51950;DHT22;37974;53.218;6.640;2022-09-25T17:24:10;13.50;99.90
51950;DHT22;37974;53.218;6.640;2022-09-25T17:26:37;13.40;99.90
51950;DHT22;37974;53.218;6.640;2022-09-25T17:29:03;13.40;99.90
51950;DHT22;37974;53.218;6.640;2022-09-25T17:31:29;13.40;99.90
51950;DHT22;37974;53.218;6.640;2022-09-25T17:33:55;13.30;99.90
51950;DHT22;37974;53.218;6.640;2022-09-25T17:36:21;13.30;99.90
51950;DHT22;37974;53.218;6.640;2022-09-25T17:38:46;13.20;99.90
51950;DHT22;37974;53.218;6.640;2022-09-25T17:41:23;13.20;99.90
51950;DHT22;37974;53.218;6.640;2022-09-25T17:43:51;13.20;99.90
51950;DHT22;37974;53.218;6.640;2022-09-25T17:46:17;13.10;99.90
51950;DHT22;37974;53.218;6.640;2022-09-25T17:48:44;13.00;99.90
51950;DHT22;37974;53.218;6.640;2022-09-25T17:51:14;12.90;99.90
51950;DHT22;37974;53.218;6.640;2022-09-25T17:53:41;12.80;99.90
51950;DHT22;37974;53.218;6.640;2022-09-25T17:56:09;12.70;99.90
51950;DHT22;37974;53.218;6.640;2022-09-25T17:58:35;12.60;99.90
51950;DHT22;37974;53.218;6.640;2022-09-25T18:01:02;12.50;99.90
51950;DHT22;37974;53.218;6.640;2022-09-25T18:03:31;12.30;99.90
51950;DHT22;37974;53.218;6.640;2022-09-25T18:05:57;12.20;99.90
51950;DHT22;37974;53.218;6.640;2022-09-25T18:08:23;12.10;99.90
51950;DHT22;37974;53.218;6.640;2022-09-25T18:10:54;12.00;99.90
51950;DHT22;37974;53.218;6.640;2022-09-25T18:13:20;11.90;99.90